Time;durP1;ratioP1;P1;durP2;ratioP2;P2;SDS_P1;SDS_P2;PMS_P1;PMS_P2;Temp;Humidity;BMP_temperature;BMP_pressure;BME280_temperature;BME280_humidity;BME280_pressure;Samples;Min_cycle;Max_cycle;Signal;HPM_P1;HPM_P2
2022/12/11 00:01:30;;;;;;;17.90;12.90;;;;;;;;;;4971104;28;20054;-79
2022/12/11 00:03:56;;;;;;;19.58;12.52;;;;;;;;;;4971187;28;20066;-78
2022/12/11 00:06:22;;;;;;;22.50;12.60;;;;;;;;;;4970428;28;20130;-79
2022/12/11 00:08:52;;;;;;;18.13;12.48;;;;;;;;;;4969341;28;20086;-78
2022/12/11 00:11:19;;;;;;;18.75;13.75;;;;;;;;;;4971086;28;20089;-79
2022/12/11 00:13:44;;;;;;;18.67;12.60;;;;;;;;;;4970455;28;20034;-79
2022/12/11 00:16:11;;;;;;;20.40;13.43;;;;;;;;;;4971364;28;20098;-78
2022/12/11 00:18:37;;;;;;;22.17;14.27;;;;;;;;;;4975720;28;20038;-77
2022/12/11 00:21:04;;;;;;;20.38;13.43;;;;;;;;;;4972928;28;20110;-78
2022/12/11 00:23:30;;;;;;;20.52;13.75;;;;;;;;;;4971552;28;20039;-78
2022/12/11 00:25:56;;;;;;;18.42;12.35;;;;;;;;;;4968833;28;20111;-78
2022/12/11 00:28:22;;;;;;;23.08;13.50;;;;;;;;;;4971317;28;20070;-79
2022/12/11 00:30:48;;;;;;;20.05;13.80;;;;;;;;;;4971850;28;20845;-77
2022/12/11 00:33:14;;;;;;;16.95;12.80;;;;;;;;;;4930814;28;1080574;-80
2022/12/11 00:35:42;;;;;;;22.23;14.02;;;;;;;;;;4970325;28;20081;-78
2022/12/11 00:38:16;;;;;;;19.27;13.75;;;;;;;;;;4973061;28;20545;-77
2022/12/11 00:40:42;;;;;;;22.35;13.98;;;;;;;;;;4962947;28;20524;-77
2022/12/11 00:43:07;;;;;;;25.77;14.10;;;;;;;;;;4969595;28;20058;-76
2022/12/11 00:45:37;;;;;;;20.10;13.20;;;;;;;;;;4969575;28;20039;-78
2022/12/11 00:48:03;;;;;;;22.42;13.80;;;;;;;;;;4973839;28;20038;-79
2022/12/11 00:50:29;;;;;;;19.00;11.93;;;;;;;;;;4967291;28;20042;-79
2022/12/11 00:52:54;;;;;;;26.75;15.60;;;;;;;;;;4968456;28;20039;-79
2022/12/11 00:55:20;;;;;;;19.77;13.77;;;;;;;;;;4973378;28;20035;-79
2022/12/11 00:57:46;;;;;;;21.83;14.85;;;;;;;;;;4973102;28;20035;-79
2022/12/11 01:00:12;;;;;;;20.92;13.93;;;;;;;;;;4971015;28;20375;-79
2022/12/11 01:02:38;;;;;;;21.27;13.45;;;;;;;;;;4974205;28;20043;-78
2022/12/11 01:05:04;;;;;;;26.52;13.85;;;;;;;;;;4971562;28;20121;-78
2022/12/11 01:07:29;;;;;;;18.65;14.18;;;;;;;;;;4974264;28;20093;-79
2022/12/11 01:12:39;;;;;;;26.23;15.10;;;;;;;;;;4962584;28;20098;-78
2022/12/11 01:15:06;;;;;;;16.85;12.93;;;;;;;;;;4971541;28;20050;-79
2022/12/11 01:17:31;;;;;;;24.33;15.63;;;;;;;;;;4975280;28;20038;-79
2022/12/11 01:19:57;;;;;;;23.60;15.55;;;;;;;;;;4969221;28;20102;-79
2022/12/11 01:22:22;;;;;;;18.90;13.02;;;;;;;;;;4973050;28;20125;-78
2022/12/11 01:24:48;;;;;;;21.83;14.57;;;;;;;;;;4970180;28;20369;-78
2022/12/11 01:27:13;;;;;;;14.73;10.30;;;;;;;;;;4972649;28;20067;-79
2022/12/11 01:29:39;;;;;;;15.38;10.48;;;;;;;;;;4970853;28;20042;-79
2022/12/11 01:32:04;;;;;;;13.35;10.85;;;;;;;;;;4972888;28;20503;-79
2022/12/11 01:34:32;;;;;;;22.00;10.82;;;;;;;;;;4975323;28;20038;-78
2022/12/11 01:36:58;;;;;;;15.23;10.90;;;;;;;;;;4970678;28;20056;-80
2022/12/11 01:39:23;;;;;;;16.65;12.52;;;;;;;;;;4972431;28;20042;-79
2022/12/11 01:41:49;;;;;;;17.50;11.48;;;;;;;;;;4973042;28;20066;-78
2022/12/11 01:44:15;;;;;;;21.08;13.95;;;;;;;;;;4972577;28;20045;-78
2022/12/11 01:46:41;;;;;;;18.92;12.80;;;;;;;;;;4974572;28;20030;-79
2022/12/11 01:49:10;;;;;;;18.35;13.43;;;;;;;;;;4964609;28;20055;-79
2022/12/11 01:51:44;;;;;;;18.13;11.82;;;;;;;;;;4971405;28;20034;-79
2022/12/11 01:54:13;;;;;;;18.10;12.88;;;;;;;;;;4973545;28;20630;-78
2022/12/11 01:56:41;;;;;;;20.75;14.00;;;;;;;;;;4968631;28;20034;-79
2022/12/11 01:59:08;;;;;;;19.08;12.57;;;;;;;;;;4971457;28;20034;-79
2022/12/11 02:01:41;;;;;;;24.48;13.23;;;;;;;;;;4967520;28;20030;-78
2022/12/11 02:04:08;;;;;;;22.35;14.68;;;;;;;;;;4970267;28;20027;-79
2022/12/11 02:06:36;;;;;;;15.35;11.70;;;;;;;;;;4972049;28;20042;-79
2022/12/11 02:09:06;;;;;;;16.98;11.80;;;;;;;;;;4972998;28;20042;-78
2022/12/11 02:11:49;;;;;;;19.45;14.13;;;;;;;;;;4974179;28;20031;-78
2022/12/11 02:14:40;;;;;;;19.83;13.23;;;;;;;;;;4973900;28;20030;-77
2022/12/11 02:17:24;;;;;;;17.95;11.52;;;;;;;;;;4973682;28;20038;-80
2022/12/11 02:19:50;;;;;;;20.02;12.27;;;;;;;;;;4974401;28;20127;-80
2022/12/11 02:22:27;;;;;;;12.27;10.40;;;;;;;;;;4974488;28;20058;-80
2022/12/11 02:25:24;;;;;;;17.55;12.35;;;;;;;;;;4971694;28;20498;-79
2022/12/11 02:28:05;;;;;;;21.38;11.82;;;;;;;;;;4973606;28;20050;-79
2022/12/11 02:30:35;;;;;;;13.15;11.02;;;;;;;;;;4974301;28;20041;-78
2022/12/11 02:33:01;;;;;;;21.50;13.55;;;;;;;;;;4970809;28;20388;-79
2022/12/11 02:35:31;;;;;;;19.25;12.30;;;;;;;;;;4971635;28;20518;-79
2022/12/11 02:38:03;;;;;;;18.70;11.68;;;;;;;;;;4974763;28;20097;-79
2022/12/11 02:40:31;;;;;;;16.35;12.27;;;;;;;;;;4974234;28;20038;-79
2022/12/11 02:43:01;;;;;;;18.50;11.88;;;;;;;;;;4972366;28;20062;-80
2022/12/11 02:45:27;;;;;;;16.15;12.88;;;;;;;;;;4973937;28;20030;-79
2022/12/11 02:47:56;;;;;;;11.43;9.27;;;;;;;;;;4974051;28;20042;-80
2022/12/11 02:50:25;;;;;;;14.25;10.27;;;;;;;;;;4973329;28;20039;-79
2022/12/11 02:52:54;;;;;;;22.25;14.43;;;;;;;;;;4972301;28;20146;-80
2022/12/11 02:55:20;;;;;;;;;;;;;;;;;;4971514;28;20506;-78
2022/12/11 02:57:55;;;;;;;11.73;9.65;;;;;;;;;;4971923;28;19914;-80
2022/12/11 03:00:20;;;;;;;13.27;11.13;;;;;;;;;;4975994;28;20062;-80
2022/12/11 03:02:46;;;;;;;19.65;14.55;;;;;;;;;;4975739;28;20094;-78
2022/12/11 03:05:14;;;;;;;16.05;12.05;;;;;;;;;;4974099;28;20098;-79
2022/12/11 03:07:42;;;;;;;21.35;13.73;;;;;;;;;;4974448;28;20038;-79
2022/12/11 03:10:13;;;;;;;19.63;13.27;;;;;;;;;;4970294;28;20039;-78
2022/12/11 03:12:42;;;;;;;22.30;13.20;;;;;;;;;;4971656;28;20034;-78
2022/12/11 03:15:12;;;;;;;22.65;14.93;;;;;;;;;;4969078;28;20442;-79
2022/12/11 03:17:50;;;;;;;19.38;13.15;;;;;;;;;;4963440;28;20304;-80
2022/12/11 03:20:39;;;;;;;20.88;13.88;;;;;;;;;;4970988;28;20065;-79
2022/12/11 03:23:14;;;;;;;;;;;;;;;;;;4971455;28;20045;-78
2022/12/11 03:26:09;;;;;;;19.15;11.40;;;;;;;;;;4959812;28;19969;-79
2022/12/11 03:28:46;;;;;;;16.73;11.63;;;;;;;;;;4972154;28;20285;-78
2022/12/11 03:31:29;;;;;;;20.35;12.13;;;;;;;;;;4970591;28;20046;-78
2022/12/11 03:33:58;;;;;;;18.05;12.80;;;;;;;;;;4971670;28;20133;-78
2022/12/11 03:36:33;;;;;;;17.17;12.13;;;;;;;;;;4967267;28;20208;-79
2022/12/11 03:39:04;;;;;;;16.27;12.93;;;;;;;;;;4969497;28;20062;-79
2022/12/11 03:41:33;;;;;;;20.23;12.23;;;;;;;;;;4969275;28;20039;-79
2022/12/11 03:43:58;;;;;;;13.48;9.80;;;;;;;;;;4965967;28;20047;-79
2022/12/11 03:46:32;;;;;;;17.33;12.48;;;;;;;;;;4971896;28;20764;-79
2022/12/11 03:49:06;;;;;;;12.80;10.77;;;;;;;;;;4969939;28;20034;-79
2022/12/11 03:51:34;;;;;;;17.02;11.77;;;;;;;;;;4969364;28;20074;-78
2022/12/11 03:54:00;;;;;;;19.35;12.63;;;;;;;;;;4969194;28;20034;-78
2022/12/11 03:56:29;;;;;;;17.83;11.80;;;;;;;;;;4969226;28;20123;-79
2022/12/11 03:58:55;;;;;;;;;;;;;;;;;;4972323;28;20046;-78
2022/12/11 04:01:20;;;;;;;15.95;11.23;;;;;;;;;;4967316;28;19948;-79
2022/12/11 04:03:46;;;;;;;15.35;10.77;;;;;;;;;;4969150;28;20407;-79
2022/12/11 04:06:11;;;;;;;17.13;10.98;;;;;;;;;;4971198;28;20038;-79
2022/12/11 04:08:37;;;;;;;15.18;11.02;;;;;;;;;;4971172;28;20098;-79
2022/12/11 04:15:00;;;;;;;19.48;13.10;;;;;;;;;;4969283;28;20035;-79
2022/12/11 04:16:33;;;;;;;17.15;12.35;;;;;;;;;;4970934;28;20542;-79
2022/12/11 04:24:26;;;;;;;14.25;10.70;;;;;;;;;;4972623;28;20039;-77
2022/12/11 04:26:52;;;;;;;20.10;12.98;;;;;;;;;;4969117;28;20030;-78
2022/12/11 04:29:17;;;;;;;20.40;13.02;;;;;;;;;;4963944;28;20059;-78
2022/12/11 04:31:44;;;;;;;14.82;11.57;;;;;;;;;;4967726;28;20114;-77
2022/12/11 04:34:10;;;;;;;19.05;11.98;;;;;;;;;;4972448;28;20386;-80
2022/12/11 04:36:36;;;;;;;14.50;11.15;;;;;;;;;;4967481;28;20035;-80
2022/12/11 04:39:03;;;;;;;18.25;12.05;;;;;;;;;;4967934;28;20518;-77
2022/12/11 04:41:29;;;;;;;16.63;11.70;;;;;;;;;;4966752;28;20070;-77
2022/12/11 04:43:55;;;;;;;18.35;13.07;;;;;;;;;;4970049;28;20066;-78
2022/12/11 04:46:23;;;;;;;15.25;10.93;;;;;;;;;;4968280;28;20058;-77
2022/12/11 04:48:49;;;;;;;12.93;10.43;;;;;;;;;;4970759;28;20027;-78
2022/12/11 04:51:15;;;;;;;11.00;9.75;;;;;;;;;;4973974;28;20112;-78
2022/12/11 04:53:41;;;;;;;19.42;11.65;;;;;;;;;;4989065;28;20042;-80
2022/12/11 04:56:10;;;;;;;16.45;11.38;;;;;;;;;;4988473;28;20100;-80
2022/12/11 04:58:36;;;;;;;9.93;8.93;;;;;;;;;;4993133;28;20680;-79
2022/12/11 05:01:10;;;;;;;15.15;10.07;;;;;;;;;;5001551;28;20026;-79
2022/12/11 05:03:36;;;;;;;14.55;11.55;;;;;;;;;;5007184;28;20122;-78
2022/12/11 05:06:02;;;;;;;17.95;12.23;;;;;;;;;;5010355;28;20034;-78
2022/12/11 05:08:27;;;;;;;15.50;11.73;;;;;;;;;;5010437;28;20022;-77
2022/12/11 05:11:00;;;;;;;9.65;7.63;;;;;;;;;;4996773;28;20422;-78
2022/12/11 05:13:27;;;;;;;18.17;12.10;;;;;;;;;;4989412;28;20038;-78
2022/12/11 05:15:52;;;;;;;16.65;11.93;;;;;;;;;;4993804;28;20038;-78
2022/12/11 05:18:18;;;;;;;14.02;10.57;;;;;;;;;;4997051;28;20038;-78
2022/12/11 05:20:44;;;;;;;17.52;11.43;;;;;;;;;;5004991;28;20072;-78
2022/12/11 05:23:10;;;;;;;10.27;8.30;;;;;;;;;;4993543;28;20042;-79
2022/12/11 05:25:35;;;;;;;17.05;11.30;;;;;;;;;;4989361;28;20053;-79
2022/12/11 05:28:01;;;;;;;12.98;9.80;;;;;;;;;;4994198;28;20038;-79
2022/12/11 05:30:26;;;;;;;13.90;10.63;;;;;;;;;;4995545;28;20103;-79
2022/12/11 05:32:52;;;;;;;14.43;10.82;;;;;;;;;;4997358;28;20060;-78
2022/12/11 05:35:17;;;;;;;15.80;10.80;;;;;;;;;;4998987;28;20066;-78
2022/12/11 05:37:43;;;;;;;12.02;10.73;;;;;;;;;;4997690;28;20070;-78
2022/12/11 05:40:11;;;;;;;18.50;11.23;;;;;;;;;;4993604;28;20042;-79
2022/12/11 05:42:37;;;;;;;14.18;10.13;;;;;;;;;;4994474;28;20094;-78
2022/12/11 05:45:03;;;;;;;11.70;9.93;;;;;;;;;;4992957;28;20134;-79
2022/12/11 05:47:30;;;;;;;13.98;10.50;;;;;;;;;;4995265;28;20026;-79
2022/12/11 05:49:56;;;;;;;19.05;11.10;;;;;;;;;;4990988;28;20141;-79
2022/12/11 05:52:21;;;;;;;15.23;9.77;;;;;;;;;;4991759;28;20570;-79
2022/12/11 05:54:49;;;;;;;15.48;9.93;;;;;;;;;;4993330;28;20049;-79
2022/12/11 05:57:15;;;;;;;17.27;9.73;;;;;;;;;;4993014;28;20117;-79
2022/12/11 05:59:40;;;;;;;14.73;9.25;;;;;;;;;;4986406;28;20113;-79
2022/12/11 06:02:06;;;;;;;12.43;9.82;;;;;;;;;;4992755;28;20046;-80
2022/12/11 06:04:32;;;;;;;11.82;9.05;;;;;;;;;;4992289;28;20065;-78
2022/12/11 06:06:58;;;;;;;10.70;7.88;;;;;;;;;;4995257;28;20041;-79
2022/12/11 06:09:23;;;;;;;41.55;25.70;;;;;;;;;;4989320;28;21473;-79
2022/12/11 06:11:49;;;;;;;20.23;13.27;;;;;;;;;;4992348;28;20056;-79
2022/12/11 06:14:14;;;;;;;16.90;12.32;;;;;;;;;;4990750;28;20027;-79
2022/12/11 06:16:40;;;;;;;12.63;10.85;;;;;;;;;;4990465;28;20050;-79
2022/12/11 06:19:06;;;;;;;14.32;10.23;;;;;;;;;;4988343;28;20054;-79
2022/12/11 06:21:32;;;;;;;15.18;10.93;;;;;;;;;;4992787;28;20054;-79
2022/12/11 06:24:00;;;;;;;13.23;10.45;;;;;;;;;;4988797;28;20078;-80
2022/12/11 06:26:26;;;;;;;12.38;10.60;;;;;;;;;;4989233;28;20061;-80
2022/12/11 06:28:52;;;;;;;13.82;9.20;;;;;;;;;;4990512;28;20045;-79
2022/12/11 06:31:19;;;;;;;13.48;10.45;;;;;;;;;;4991228;28;20038;-79
2022/12/11 06:33:45;;;;;;;15.02;10.43;;;;;;;;;;4990941;28;20026;-79
2022/12/11 06:36:16;;;;;;;18.75;12.40;;;;;;;;;;4989066;28;20096;-79
2022/12/11 06:38:42;;;;;;;15.77;11.75;;;;;;;;;;4991905;28;20041;-79
2022/12/11 06:41:08;;;;;;;22.20;11.30;;;;;;;;;;4988171;28;20406;-78
2022/12/11 06:43:36;;;;;;;11.30;9.13;;;;;;;;;;4991971;28;20034;-79
2022/12/11 06:46:06;;;;;;;11.80;9.27;;;;;;;;;;4991266;28;20038;-79
2022/12/11 06:48:32;;;;;;;14.30;10.38;;;;;;;;;;4988541;28;20037;-79
2022/12/11 06:50:57;;;;;;;15.30;9.73;;;;;;;;;;4990253;28;20038;-79
2022/12/11 06:53:23;;;;;;;9.95;8.50;;;;;;;;;;4989571;28;20034;-79
2022/12/11 06:55:48;;;;;;;12.35;9.23;;;;;;;;;;4991768;28;20494;-79
2022/12/11 06:58:14;;;;;;;16.40;10.35;;;;;;;;;;4991377;28;20041;-78
2022/12/11 07:00:39;;;;;;;10.82;9.70;;;;;;;;;;4990016;28;20077;-79
2022/12/11 07:03:05;;;;;;;12.25;9.65;;;;;;;;;;4986563;28;20046;-79
2022/12/11 07:05:32;;;;;;;9.80;8.90;;;;;;;;;;4992013;28;20038;-78
2022/12/11 07:07:58;;;;;;;14.68;10.73;;;;;;;;;;4989355;28;20068;-77
2022/12/11 07:10:23;;;;;;;11.88;9.57;;;;;;;;;;4985118;28;20065;-79
2022/12/11 07:12:51;;;;;;;10.80;9.20;;;;;;;;;;4991483;28;20030;-78
2022/12/11 07:15:17;;;;;;;10.57;9.13;;;;;;;;;;4988227;28;20046;-77
2022/12/11 07:17:42;;;;;;;11.60;10.23;;;;;;;;;;4992056;28;20034;-80
2022/12/11 07:20:08;;;;;;;17.23;11.38;;;;;;;;;;4983654;28;20092;-80
2022/12/11 07:22:34;;;;;;;20.23;11.20;;;;;;;;;;4986570;28;20041;-79
2022/12/11 07:24:59;;;;;;;15.23;11.10;;;;;;;;;;4989762;28;20112;-79
2022/12/11 07:27:25;;;;;;;13.23;10.13;;;;;;;;;;4991401;28;20046;-80
2022/12/11 07:29:50;;;;;;;18.00;12.65;;;;;;;;;;4982790;28;20687;-79
2022/12/11 07:32:16;;;;;;;16.42;11.52;;;;;;;;;;4991055;28;20044;-80
2022/12/11 07:34:42;;;;;;;13.00;10.40;;;;;;;;;;4988283;28;20031;-79
2022/12/11 07:37:07;;;;;;;18.55;13.25;;;;;;;;;;4989182;28;20038;-79
2022/12/11 07:39:33;;;;;;;16.63;13.18;;;;;;;;;;4990103;28;20042;-79
2022/12/11 07:41:58;;;;;;;18.13;11.90;;;;;;;;;;4991660;28;20045;-78
2022/12/11 07:44:24;;;;;;;18.55;12.48;;;;;;;;;;4985929;28;20038;-79
2022/12/11 07:46:49;;;;;;;14.27;11.45;;;;;;;;;;4986946;28;20030;-80
2022/12/11 07:49:15;;;;;;;15.27;11.32;;;;;;;;;;4991018;28;20516;-78
2022/12/11 07:51:41;;;;;;;12.63;10.25;;;;;;;;;;4989161;28;20042;-79
2022/12/11 07:54:11;;;;;;;12.82;11.27;;;;;;;;;;4990523;28;20712;-79
2022/12/11 07:56:37;;;;;;;19.45;11.18;;;;;;;;;;4990857;28;20034;-80
2022/12/11 07:59:04;;;;;;;14.73;10.95;;;;;;;;;;4988280;28;20042;-78
2022/12/11 08:01:34;;;;;;;18.23;11.77;;;;;;;;;;4986842;28;20422;-79
2022/12/11 08:04:00;;;;;;;17.75;11.50;;;;;;;;;;4984416;28;20042;-78
2022/12/11 08:06:32;;;;;;;14.73;10.30;;;;;;;;;;4989432;28;20579;-79
2022/12/11 08:09:00;;;;;;;19.05;12.32;;;;;;;;;;4986259;28;20561;-79
2022/12/11 08:11:26;;;;;;;14.60;11.05;;;;;;;;;;4985169;28;20069;-78
2022/12/11 08:13:52;;;;;;;18.52;12.63;;;;;;;;;;4988082;28;20053;-79
2022/12/11 08:16:18;;;;;;;16.05;11.60;;;;;;;;;;4989564;28;20509;-78
2022/12/11 08:18:45;;;;;;;15.10;11.45;;;;;;;;;;4985752;28;20065;-78
2022/12/11 08:21:15;;;;;;;13.98;10.65;;;;;;;;;;4990212;28;20034;-79
2022/12/11 08:23:41;;;;;;;19.77;11.23;;;;;;;;;;4991051;28;20022;-79
2022/12/11 08:26:10;;;;;;;18.25;12.15;;;;;;;;;;4989794;28;20053;-79
2022/12/11 08:28:35;;;;;;;18.83;11.05;;;;;;;;;;4988079;28;20048;-78
2022/12/11 08:31:06;;;;;;;12.40;8.60;;;;;;;;;;4988094;28;20030;-78
2022/12/11 08:33:32;;;;;;;15.90;10.82;;;;;;;;;;4985180;28;20022;-79
2022/12/11 08:36:02;;;;;;;17.42;11.90;;;;;;;;;;4990738;28;20026;-79
2022/12/11 08:38:27;;;;;;;15.18;11.95;;;;;;;;;;4984791;28;20034;-79
2022/12/11 08:40:53;;;;;;;15.88;11.63;;;;;;;;;;4986778;28;20046;-79
2022/12/11 08:43:18;;;;;;;15.93;11.43;;;;;;;;;;4989317;28;20026;-79
2022/12/11 08:45:45;;;;;;;21.92;11.82;;;;;;;;;;4991379;28;20090;-79
2022/12/11 08:48:10;;;;;;;19.13;11.73;;;;;;;;;;4993718;28;20060;-79
2022/12/11 08:50:36;;;;;;;17.90;11.05;;;;;;;;;;4988851;28;20041;-80
2022/12/11 08:53:02;;;;;;;15.32;12.25;;;;;;;;;;4993820;28;20060;-79
2022/12/11 08:55:27;;;;;;;16.50;11.23;;;;;;;;;;4982733;28;20049;-76
2022/12/11 08:57:53;;;;;;;15.13;11.27;;;;;;;;;;4986596;28;20046;-78
2022/12/11 09:00:20;;;;;;;16.70;11.48;;;;;;;;;;4990499;28;20042;-78
2022/12/11 09:02:46;;;;;;;14.00;10.50;;;;;;;;;;4989177;28;20481;-79
2022/12/11 09:05:12;;;;;;;17.00;11.35;;;;;;;;;;4983177;28;20123;-78
2022/12/11 09:07:38;;;;;;;14.32;10.48;;;;;;;;;;4987975;28;20128;-78
2022/12/11 09:10:05;;;;;;;17.02;11.20;;;;;;;;;;4990841;28;20030;-79
2022/12/11 09:12:33;;;;;;;15.57;11.43;;;;;;;;;;4987270;28;20030;-77
2022/12/11 09:14:59;;;;;;;13.20;10.57;;;;;;;;;;4982828;28;20500;-76
2022/12/11 09:17:24;;;;;;;10.93;9.82;;;;;;;;;;4983034;28;20097;-76
2022/12/11 09:19:50;;;;;;;17.75;11.13;;;;;;;;;;4984432;28;20038;-76
2022/12/11 09:22:16;;;;;;;18.83;11.02;;;;;;;;;;4987059;28;20073;-77
2022/12/11 09:24:41;;;;;;;14.90;9.80;;;;;;;;;;4987598;28;20058;-77
2022/12/11 09:27:07;;;;;;;16.40;11.15;;;;;;;;;;4985509;28;20077;-76
2022/12/11 09:29:33;;;;;;;19.15;12.75;;;;;;;;;;4985985;28;20095;-76
2022/12/11 09:31:58;;;;;;;18.83;11.90;;;;;;;;;;4982366;28;20058;-77
2022/12/11 09:34:24;;;;;;;15.10;10.70;;;;;;;;;;4980937;28;20038;-76
2022/12/11 09:36:49;;;;;;;18.92;12.65;;;;;;;;;;4986219;28;20050;-77
2022/12/11 09:39:16;;;;;;;18.02;12.00;;;;;;;;;;4977285;28;20540;-77
2022/12/11 09:41:53;;;;;;;19.05;12.80;;;;;;;;;;4982634;28;20035;-78
2022/12/11 09:44:48;;;;;;;13.93;10.63;;;;;;;;;;4988841;28;20026;-79
2022/12/11 09:47:33;;;;;;;16.77;11.25;;;;;;;;;;4984280;28;20613;-77
2022/12/11 09:50:14;;;;;;;16.00;11.57;;;;;;;;;;4987470;28;20038;-78
2022/12/11 09:52:43;;;;;;;16.08;11.35;;;;;;;;;;4989702;28;20097;-78
2022/12/11 09:55:16;;;;;;;19.10;11.98;;;;;;;;;;4988503;28;20054;-78
2022/12/11 09:58:02;;;;;;;14.70;12.63;;;;;;;;;;4985086;28;20042;-77
2022/12/11 10:00:46;;;;;;;15.02;12.88;;;;;;;;;;4991999;28;20038;-79
2022/12/11 10:03:43;;;;;;;21.30;12.70;;;;;;;;;;4987330;28;20734;-79
2022/12/11 10:06:21;;;;;;;10.07;8.38;;;;;;;;;;4983578;28;20038;-78
2022/12/11 10:08:59;;;;;;;13.75;11.55;;;;;;;;;;4992726;28;20097;-78
2022/12/11 10:11:41;;;;;;;15.98;11.88;;;;;;;;;;4988595;28;20532;-78
2022/12/11 10:14:31;;;;;;;18.67;13.05;;;;;;;;;;4987504;28;20044;-79
2022/12/11 10:17:19;;;;;;;11.82;9.73;;;;;;;;;;4990875;28;20100;-78
2022/12/11 10:19:46;;;;;;;19.88;13.52;;;;;;;;;;4986972;28;20514;-79
2022/12/11 10:22:28;;;;;;;18.85;13.65;;;;;;;;;;4987808;28;20038;-78
2022/12/11 10:24:58;;;;;;;15.32;10.85;;;;;;;;;;4987258;28;20395;-78
2022/12/11 10:27:31;;;;;;;14.15;11.68;;;;;;;;;;4984956;28;20046;-78
2022/12/11 10:30:12;;;;;;;20.83;13.07;;;;;;;;;;4986932;28;20042;-78
2022/12/11 10:32:43;;;;;;;20.92;12.52;;;;;;;;;;4986774;28;20053;-79
2022/12/11 10:35:18;;;;;;;17.95;11.50;;;;;;;;;;4985271;28;20093;-78
2022/12/11 10:37:44;;;;;;;17.88;12.75;;;;;;;;;;4990252;28;20030;-77
2022/12/11 10:40:11;;;;;;;15.93;10.98;;;;;;;;;;4984212;28;20035;-78
2022/12/11 10:42:36;;;;;;;20.40;13.65;;;;;;;;;;4989099;28;20034;-77
2022/12/11 10:45:04;;;;;;;21.08;12.23;;;;;;;;;;4988717;28;20042;-78
2022/12/11 10:47:30;;;;;;;16.13;11.60;;;;;;;;;;4988067;28;20050;-79
2022/12/11 10:49:58;;;;;;;17.15;10.68;;;;;;;;;;4990917;28;20034;-79
2022/12/11 10:52:41;;;;;;;18.30;11.77;;;;;;;;;;4988057;28;20038;-79
2022/12/11 10:55:21;;;;;;;15.20;11.15;;;;;;;;;;4989340;28;20042;-78
2022/12/11 10:57:55;;;;;;;13.82;10.98;;;;;;;;;;4988854;28;20035;-78
2022/12/11 11:00:27;;;;;;;24.70;13.50;;;;;;;;;;4986256;28;20398;-78
2022/12/11 11:02:54;;;;;;;16.83;11.23;;;;;;;;;;4987981;28;20495;-78
2022/12/11 11:05:36;;;;;;;18.17;12.43;;;;;;;;;;4989531;28;20104;-78
2022/12/11 11:08:21;;;;;;;15.05;11.18;;;;;;;;;;4992811;28;20037;-78
2022/12/11 11:10:58;;;;;;;20.77;12.00;;;;;;;;;;4992862;28;20041;-79
2022/12/11 11:13:27;;;;;;;22.67;12.90;;;;;;;;;;4993256;28;20066;-78
2022/12/11 11:16:05;;;;;;;16.92;12.00;;;;;;;;;;4989408;28;20414;-79
2022/12/11 11:18:32;;;;;;;15.88;11.63;;;;;;;;;;4983862;28;20027;-79
2022/12/11 11:20:59;;;;;;;22.58;12.63;;;;;;;;;;4992202;28;20026;-78
2022/12/11 11:23:26;;;;;;;15.70;10.90;;;;;;;;;;4991744;28;20046;-79
2022/12/11 11:25:54;;;;;;;12.73;10.70;;;;;;;;;;4993847;28;20093;-79
2022/12/11 11:28:29;;;;;;;15.10;11.07;;;;;;;;;;4988061;28;20072;-78
2022/12/11 11:31:02;;;;;;;16.77;11.75;;;;;;;;;;4992906;28;20034;-78
2022/12/11 11:33:29;;;;;;;18.25;11.98;;;;;;;;;;4993008;28;20050;-79
2022/12/11 11:35:59;;;;;;;17.20;10.88;;;;;;;;;;4991534;28;20105;-77
2022/12/11 11:38:30;;;;;;;18.08;11.57;;;;;;;;;;5007861;28;20048;-78
2022/12/11 11:41:18;;;;;;;11.48;9.40;;;;;;;;;;5006866;28;20126;-78
2022/12/11 11:43:54;;;;;;;15.55;11.32;;;;;;;;;;5000024;28;20062;-78
2022/12/11 11:46:28;;;;;;;15.93;10.75;;;;;;;;;;5004054;28;20042;-78
2022/12/11 11:49:09;;;;;;;13.57;10.85;;;;;;;;;;5004810;28;20478;-79
2022/12/11 11:51:41;;;;;;;17.48;11.50;;;;;;;;;;5000592;28;20031;-78
2022/12/11 11:54:32;;;;;;;16.98;11.27;;;;;;;;;;5002851;28;20106;-77
2022/12/11 11:57:02;;;;;;;17.33;12.52;;;;;;;;;;5004267;28;20030;-78
2022/12/11 11:59:35;;;;;;;15.48;10.73;;;;;;;;;;4997652;28;20030;-77
2022/12/11 12:02:00;;;;;;;18.40;11.48;;;;;;;;;;4988382;28;20039;-79
2022/12/11 12:04:33;;;;;;;18.08;12.88;;;;;;;;;;4990444;28;20038;-80
2022/12/11 12:07:13;;;;;;;15.15;11.70;;;;;;;;;;4987649;28;20105;-80
2022/12/11 12:09:55;;;;;;;18.17;12.02;;;;;;;;;;4985155;28;20105;-77
2022/12/11 12:12:39;;;;;;;17.00;11.57;;;;;;;;;;4985323;28;20038;-78
2022/12/11 12:15:17;;;;;;;19.92;12.35;;;;;;;;;;4992214;28;20165;-78
2022/12/11 12:17:46;;;;;;;17.33;10.63;;;;;;;;;;4989851;28;20048;-76
2022/12/11 12:20:23;;;;;;;17.05;11.73;;;;;;;;;;4997549;28;20045;-80
2022/12/11 12:22:52;;;;;;;14.15;10.52;;;;;;;;;;4992592;28;20036;-79
2022/12/11 12:25:27;;;;;;;16.27;11.80;;;;;;;;;;4992148;28;20038;-78
2022/12/11 12:27:59;;;;;;;19.05;11.68;;;;;;;;;;4988785;28;21648;-77
2022/12/11 12:30:29;;;;;;;20.25;12.48;;;;;;;;;;4990922;28;20129;-77
2022/12/11 12:33:13;;;;;;;17.30;11.48;;;;;;;;;;4991453;28;20043;-77
2022/12/11 12:36:01;;;;;;;16.63;11.38;;;;;;;;;;4986596;28;20066;-78
2022/12/11 12:38:51;;;;;;;21.45;14.57;;;;;;;;;;4992852;28;20037;-77
2022/12/11 12:41:30;;;;;;;19.05;11.98;;;;;;;;;;4988175;28;20041;-76
2022/12/11 12:44:08;;;;;;;14.07;10.63;;;;;;;;;;4990828;28;20039;-78
2022/12/11 12:46:56;;;;;;;16.58;11.65;;;;;;;;;;4990917;28;20034;-78
2022/12/11 12:49:41;;;;;;;14.30;10.20;;;;;;;;;;4990369;28;20054;-78
2022/12/11 12:52:30;;;;;;;16.13;11.95;;;;;;;;;;4988090;28;20220;-77
2022/12/11 12:55:15;;;;;;;16.50;11.82;;;;;;;;;;4996225;28;20066;-77
2022/12/11 12:57:45;;;;;;;22.60;13.30;;;;;;;;;;4969539;28;20042;-79
2022/12/11 13:00:11;;;;;;;21.90;13.32;;;;;;;;;;4987705;28;20490;-78
2022/12/11 13:02:49;;;;;;;21.60;12.55;;;;;;;;;;4989333;28;20660;-78
2022/12/11 13:05:21;;;;;;;19.08;12.93;;;;;;;;;;4990424;28;20077;-78
2022/12/11 13:07:50;;;;;;;16.17;11.45;;;;;;;;;;4987802;28;20042;-78
2022/12/11 13:10:26;;;;;;;13.40;10.50;;;;;;;;;;4985713;28;20053;-78
2022/12/11 13:12:52;;;;;;;18.25;11.13;;;;;;;;;;4988261;28;20053;-78
2022/12/11 13:15:42;;;;;;;18.48;11.35;;;;;;;;;;5000652;28;20053;-77
2022/12/11 13:18:46;;;;;;;17.65;12.25;;;;;;;;;;4985253;28;20096;-79
2022/12/11 13:21:42;;;;;;;17.38;12.45;;;;;;;;;;4988683;28;20137;-78
2022/12/11 13:24:19;;;;;;;25.63;15.25;;;;;;;;;;4958003;28;20518;-79
2022/12/11 13:26:46;;;;;;;20.50;13.63;;;;;;;;;;4959592;28;20039;-79
2022/12/11 13:29:35;;;;;;;28.13;14.80;;;;;;;;;;4953980;28;20110;-78
2022/12/11 13:32:28;;;;;;;15.02;10.55;;;;;;;;;;4955904;28;20043;-78
2022/12/11 13:34:56;;;;;;;18.45;12.13;;;;;;;;;;4956106;28;20054;-78
2022/12/11 13:37:37;;;;;;;17.65;11.85;;;;;;;;;;4954563;28;20130;-79
2022/12/11 13:40:13;;;;;;;20.05;13.43;;;;;;;;;;4956901;28;20035;-78
2022/12/11 13:42:47;;;;;;;15.82;12.48;;;;;;;;;;4964217;28;20042;-77
2022/12/11 13:45:25;;;;;;;18.27;11.73;;;;;;;;;;4945096;29;20035;-77
2022/12/11 13:47:51;;;;;;;18.65;12.65;;;;;;;;;;4948437;28;20051;-78
2022/12/11 13:50:25;;;;;;;19.40;11.82;;;;;;;;;;4953743;28;20058;-79
2022/12/11 13:52:55;;;;;;;20.95;11.32;;;;;;;;;;4959123;28;20042;-79
2022/12/11 13:55:27;;;;;;;18.77;12.25;;;;;;;;;;4956964;28;20035;-78
2022/12/11 13:57:53;;;;;;;17.55;12.40;;;;;;;;;;4953645;28;20519;-79
2022/12/11 14:00:25;;;;;;;15.85;12.10;;;;;;;;;;4972145;28;20038;-78
2022/12/11 14:02:54;;;;;;;24.30;12.85;;;;;;;;;;4991018;28;20510;-78
2022/12/11 14:05:20;;;;;;;16.05;11.77;;;;;;;;;;4988944;28;20049;-78
2022/12/11 14:07:52;;;;;;;20.45;12.95;;;;;;;;;;4990326;28;20034;-78
2022/12/11 14:10:23;;;;;;;19.58;12.10;;;;;;;;;;4992410;28;20837;-77
2022/12/11 14:12:55;;;;;;;18.15;12.15;;;;;;;;;;4993362;28;20065;-77
2022/12/11 14:15:21;;;;;;;18.38;12.23;;;;;;;;;;4985288;28;20030;-77
2022/12/11 14:17:47;;;;;;;16.70;11.68;;;;;;;;;;4988515;28;20038;-76
2022/12/11 14:20:20;;;;;;;19.00;13.05;;;;;;;;;;4983911;28;20049;-77
2022/12/11 14:22:46;;;;;;;16.98;11.75;;;;;;;;;;4985442;28;20038;-77
2022/12/11 14:25:24;;;;;;;14.70;11.38;;;;;;;;;;4985228;28;20410;-76
2022/12/11 14:27:55;;;;;;;14.93;11.65;;;;;;;;;;4986899;28;20030;-79
2022/12/11 14:30:24;;;;;;;23.42;14.15;;;;;;;;;;4984067;28;20038;-77
2022/12/11 14:32:51;;;;;;;17.00;12.40;;;;;;;;;;4988364;28;20035;-78
2022/12/11 14:35:32;;;;;;;20.73;12.70;;;;;;;;;;4988136;28;20030;-77
2022/12/11 14:38:03;;;;;;;16.60;12.38;;;;;;;;;;4981026;28;20038;-77
2022/12/11 14:40:37;;;;;;;17.60;12.82;;;;;;;;;;4984893;28;20070;-77
2022/12/11 14:43:10;;;;;;;21.55;13.30;;;;;;;;;;4988582;28;20453;-78
2022/12/11 14:45:42;;;;;;;17.45;12.75;;;;;;;;;;4984317;28;20093;-78
2022/12/11 14:48:21;;;;;;;19.17;13.40;;;;;;;;;;4985773;28;20050;-77